Time;durP1;ratioP1;P1;durP2;ratioP2;P2;SDS_P1;SDS_P2;PMS_P1;PMS_P2;Temp;Humidity;BMP_temperature;BMP_pressure;BME280_temperature;BME280_humidity;BME280_pressure;Samples;Min_cycle;Max_cycle;Signal;HPM_P1;HPM_P2
2021/07/17 00:00:47;;;;;;;29.63;9.63;;;16.40;99.90;;;;;;5113867;28;20041;-70
2021/07/17 00:03:13;;;;;;;26.40;9.75;;;16.40;99.90;;;;;;5114133;28;20039;-70
2021/07/17 00:05:39;;;;;;;29.05;9.23;;;16.40;99.90;;;;;;5113787;28;20407;-70
2021/07/17 00:08:05;;;;;;;26.23;9.05;;;16.40;99.90;;;;;;5114135;28;20050;-70
2021/07/17 00:10:47;;;;;;;31.00;9.10;;;16.40;99.90;;;;;;5113475;28;20042;-70
2021/07/17 00:13:13;;;;;;;28.42;8.75;;;16.40;99.90;;;;;;5113792;28;20483;-70
2021/07/17 00:15:39;;;;;;;23.00;8.88;;;16.50;99.90;;;;;;5113902;28;20122;-70
2021/07/17 00:18:05;;;;;;;29.65;8.40;;;16.50;99.90;;;;;;5113742;28;20176;-70
2021/07/17 00:20:31;;;;;;;24.38;9.23;;;16.40;99.90;;;;;;5113336;28;20472;-69
2021/07/17 00:22:57;;;;;;;23.33;8.23;;;16.40;99.90;;;;;;5114081;28;20098;-69
2021/07/17 00:25:23;;;;;;;26.60;9.75;;;16.40;99.90;;;;;;5113750;28;20039;-70
2021/07/17 00:27:50;;;;;;;24.98;8.50;;;16.40;99.90;;;;;;5114206;28;20383;-70
2021/07/17 00:30:16;;;;;;;27.25;9.27;;;16.40;99.90;;;;;;5113468;28;20080;-71
2021/07/17 00:32:43;;;;;;;21.38;8.07;;;16.40;99.90;;;;;;5113687;28;20043;-70
2021/07/17 00:35:09;;;;;;;21.55;8.68;;;16.40;99.90;;;;;;5113667;28;20384;-70
2021/07/17 00:37:35;;;;;;;22.23;7.78;;;16.40;99.90;;;;;;5113669;28;20088;-70
2021/07/17 00:40:04;;;;;;;21.35;8.82;;;16.40;99.90;;;;;;5113180;28;20475;-71
2021/07/17 00:42:30;;;;;;;25.70;9.02;;;16.40;99.90;;;;;;5113806;28;20071;-71
2021/07/17 00:44:56;;;;;;;20.13;8.50;;;16.30;99.90;;;;;;5113627;28;20035;-70
2021/07/17 00:47:23;;;;;;;24.75;8.32;;;16.30;99.90;;;;;;5113686;28;20089;-70
2021/07/17 00:49:49;;;;;;;22.05;8.50;;;16.30;99.90;;;;;;5113138;28;20380;-70
2021/07/17 00:52:15;;;;;;;24.73;8.90;;;16.30;99.90;;;;;;5113461;28;20040;-70
2021/07/17 00:54:42;;;;;;;31.42;9.18;;;16.30;99.90;;;;;;5113577;28;20039;-71
2021/07/17 00:57:09;;;;;;;31.73;8.55;;;16.30;99.90;;;;;;5113383;28;20032;-69
2021/07/17 00:59:37;;;;;;;25.90;8.80;;;16.30;99.90;;;;;;5113011;28;20044;-69
2021/07/17 01:02:04;;;;;;;26.58;8.15;;;16.30;99.90;;;;;;5113405;28;20054;-70
2021/07/17 01:04:30;;;;;;;27.80;9.95;;;16.30;99.90;;;;;;5113344;28;20039;-70
2021/07/17 01:06:59;;;;;;;21.35;8.65;;;16.30;99.90;;;;;;5113322;28;20395;-70
2021/07/17 01:09:26;;;;;;;26.20;8.65;;;16.30;99.90;;;;;;5113010;28;20490;-70
2021/07/17 01:11:53;;;;;;;32.05;10.15;;;16.30;99.90;;;;;;5116941;28;20441;-70
2021/07/17 01:14:18;;;;;;;27.75;9.18;;;16.30;99.90;;;;;;5117366;28;20032;-70
2021/07/17 01:16:45;;;;;;;28.13;8.20;;;16.30;99.90;;;;;;5117424;28;20043;-70
2021/07/17 01:19:11;;;;;;;24.63;9.27;;;16.20;99.90;;;;;;5116806;27;20047;-70
2021/07/17 01:21:37;;;;;;;22.35;8.32;;;16.30;99.90;;;;;;5117020;28;20043;-70
2021/07/17 01:24:03;;;;;;;21.92;8.93;;;16.20;99.90;;;;;;5117023;28;20119;-70
2021/07/17 01:26:29;;;;;;;33.90;9.00;;;16.30;99.90;;;;;;5117393;28;20035;-70
2021/07/17 01:28:55;;;;;;;24.77;7.95;;;16.30;99.90;;;;;;5116946;28;20035;-70
2021/07/17 01:31:21;;;;;;;20.83;7.53;;;16.30;99.90;;;;;;5116909;28;20036;-70
2021/07/17 01:33:47;;;;;;;18.88;8.07;;;16.30;99.90;;;;;;5116833;28;20123;-70
2021/07/17 01:36:14;;;;;;;26.30;8.40;;;16.20;99.90;;;;;;5116653;28;20075;-70
2021/07/17 01:38:41;;;;;;;26.88;8.15;;;16.20;99.90;;;;;;5116372;28;20512;-70
2021/07/17 01:41:09;;;;;;;22.70;7.65;;;16.30;99.90;;;;;;5116631;28;20039;-70
2021/07/17 01:43:35;;;;;;;28.52;8.07;;;16.20;99.90;;;;;;5116809;28;20050;-71
2021/07/17 01:46:01;;;;;;;25.45;7.10;;;16.10;99.90;;;;;;5116565;28;20035;-70
2021/07/17 01:48:27;;;;;;;20.95;7.25;;;16.20;99.90;;;;;;5116175;28;20047;-71
2021/07/17 01:50:53;;;;;;;22.83;7.10;;;16.20;99.90;;;;;;5116406;28;20062;-70
2021/07/17 01:53:20;;;;;;;17.48;6.88;;;16.20;99.90;;;;;;5116277;28;20043;-71
2021/07/17 01:55:46;;;;;;;22.38;7.32;;;16.20;99.90;;;;;;5116305;27;20476;-71
2021/07/17 01:58:12;;;;;;;19.10;7.20;;;16.20;99.90;;;;;;5116264;28;20126;-71
2021/07/17 02:00:38;;;;;;;24.63;7.57;;;16.20;99.90;;;;;;5115794;28;20039;-71
2021/07/17 02:03:07;;;;;;;25.75;7.35;;;16.20;99.90;;;;;;5116242;28;20050;-71
2021/07/17 02:05:33;;;;;;;23.63;7.20;;;16.20;99.90;;;;;;5116267;28;20064;-71
2021/07/17 02:08:00;;;;;;;18.58;7.22;;;16.20;99.90;;;;;;5116629;28;20135;-71
2021/07/17 02:10:28;;;;;;;23.65;7.28;;;16.20;99.90;;;;;;5115823;28;20114;-71
2021/07/17 02:13:06;;;;;;;26.48;7.85;;;16.20;99.90;;;;;;5116096;28;20044;-71
2021/07/17 02:15:35;;;;;;;23.52;6.07;;;16.20;99.90;;;;;;5115134;28;20432;-71
2021/07/17 02:18:01;;;;;;;20.10;5.78;;;16.20;99.90;;;;;;5115069;28;20046;-71
2021/07/17 02:20:28;;;;;;;26.33;7.18;;;16.30;99.90;;;;;;5115091;28;20081;-71
2021/07/17 02:22:54;;;;;;;20.50;6.55;;;16.30;99.90;;;;;;5115739;27;20047;-71
2021/07/17 02:25:21;;;;;;;30.20;7.30;;;16.30;99.90;;;;;;5115669;28;20044;-71
2021/07/17 02:27:46;;;;;;;21.70;6.22;;;16.30;99.90;;;;;;5115766;28;20388;-71
2021/07/17 02:30:13;;;;;;;28.60;7.85;;;16.30;99.90;;;;;;5115453;28;20036;-71
2021/07/17 02:32:38;;;;;;;31.48;7.88;;;16.20;99.90;;;;;;5115536;28;20601;-71
2021/07/17 02:35:05;;;;;;;21.38;6.95;;;16.20;99.90;;;;;;5115531;28;20114;-71
2021/07/17 02:37:31;;;;;;;28.98;7.85;;;16.20;99.90;;;;;;5116013;27;20411;-71
2021/07/17 02:39:57;;;;;;;25.23;6.72;;;16.30;99.90;;;;;;5115165;27;20043;-71
2021/07/17 02:42:23;;;;;;;21.92;6.53;;;16.30;99.90;;;;;;5115311;28;20419;-71
2021/07/17 02:44:49;;;;;;;30.25;8.30;;;16.30;99.90;;;;;;5115657;28;20032;-71
2021/07/17 02:47:16;;;;;;;20.48;6.88;;;16.30;99.90;;;;;;5115392;28;20498;-71
2021/07/17 02:49:42;;;;;;;20.42;6.20;;;16.30;99.90;;;;;;5115095;28;20114;-71
2021/07/17 02:52:08;;;;;;;28.20;6.82;;;16.30;99.90;;;;;;5115207;28;20131;-71
2021/07/17 02:54:33;;;;;;;21.75;6.07;;;16.30;99.90;;;;;;5115793;28;20071;-71
2021/07/17 02:56:59;;;;;;;27.05;6.47;;;16.30;99.90;;;;;;5115125;28;20039;-71
2021/07/17 02:59:25;;;;;;;17.80;5.53;;;16.30;99.90;;;;;;5114703;28;20043;-71
2021/07/17 03:01:50;;;;;;;23.77;6.35;;;16.30;99.90;;;;;;5115369;28;20043;-71
2021/07/17 03:04:16;;;;;;;23.33;6.47;;;16.30;99.90;;;;;;5114861;28;20035;-71
2021/07/17 03:06:42;;;;;;;18.27;6.10;;;16.30;99.90;;;;;;5115381;28;20031;-71
2021/07/17 03:09:08;;;;;;;20.85;6.00;;;16.30;99.90;;;;;;5114609;28;20056;-71
2021/07/17 03:11:34;;;;;;;26.77;7.50;;;16.30;99.90;;;;;;5114789;28;20039;-71
2021/07/17 03:14:02;;;;;;;17.42;5.22;;;16.30;99.90;;;;;;5114674;28;20046;-71
2021/07/17 03:16:32;;;;;;;20.05;6.47;;;16.30;99.90;;;;;;5114802;28;20043;-71
2021/07/17 03:18:58;;;;;;;21.15;6.18;;;16.30;99.90;;;;;;5114836;28;20118;-71
2021/07/17 03:21:26;;;;;;;22.95;5.95;;;16.30;99.90;;;;;;5114705;28;20047;-71
2021/07/17 03:23:53;;;;;;;16.80;6.55;;;16.30;99.90;;;;;;5114615;28;20035;-71
2021/07/17 03:26:19;;;;;;;26.80;6.30;;;16.30;99.90;;;;;;5115075;28;20050;-71
2021/07/17 03:28:45;;;;;;;23.98;5.97;;;16.30;99.90;;;;;;5114119;28;20061;-71
2021/07/17 03:31:11;;;;;;;17.20;5.40;;;16.40;99.90;;;;;;5114278;28;20039;-71
2021/07/17 03:33:37;;;;;;;21.88;5.72;;;16.40;99.90;;;;;;5113932;28;20035;-71
2021/07/17 03:36:04;;;;;;;21.40;5.72;;;16.30;99.90;;;;;;5114477;28;20200;-71
2021/07/17 03:38:30;;;;;;;21.83;6.15;;;16.30;99.90;;;;;;5114142;28;20062;-71
2021/07/17 03:40:56;;;;;;;18.80;5.95;;;16.30;99.90;;;;;;5113086;28;20085;-71
2021/07/17 03:43:22;;;;;;;17.92;5.70;;;16.30;99.90;;;;;;5114346;28;20048;-71
2021/07/17 03:45:48;;;;;;;15.23;5.25;;;16.30;99.90;;;;;;5114479;28;20039;-71
2021/07/17 03:48:13;;;;;;;13.88;5.60;;;16.40;99.90;;;;;;5114816;28;20044;-71
2021/07/17 03:50:39;;;;;;;24.63;5.93;;;16.40;99.90;;;;;;5114233;28;20545;-71
2021/07/17 03:53:05;;;;;;;19.70;6.38;;;16.40;99.90;;;;;;5113942;28;20047;-71
2021/07/17 03:55:31;;;;;;;18.92;5.63;;;16.40;99.90;;;;;;5114020;28;20115;-71
2021/07/17 03:58:06;;;;;;;24.35;6.85;;;16.40;99.90;;;;;;5114088;28;20047;-71
2021/07/17 04:00:32;;;;;;;25.33;5.60;;;16.40;99.90;;;;;;5113730;28;20058;-71
2021/07/17 04:03:02;;;;;;;20.52;6.28;;;16.40;99.90;;;;;;5114102;28;20083;-71
2021/07/17 04:05:29;;;;;;;18.17;5.90;;;16.40;99.90;;;;;;5114039;28;20104;-71
2021/07/17 04:07:55;;;;;;;19.95;5.95;;;16.40;99.90;;;;;;5114113;28;20032;-71
2021/07/17 04:10:22;;;;;;;20.17;5.72;;;16.40;99.90;;;;;;5113646;28;21822;-71
2021/07/17 04:12:47;;;;;;;17.35;5.30;;;16.40;99.90;;;;;;5113893;28;20182;-71
2021/07/17 04:15:13;;;;;;;19.20;5.47;;;16.40;99.90;;;;;;5114149;28;20114;-71
2021/07/17 04:17:39;;;;;;;22.92;6.55;;;16.40;99.90;;;;;;5113739;28;20120;-71
2021/07/17 04:20:07;;;;;;;20.73;5.53;;;16.50;99.90;;;;;;5113667;28;20039;-71
2021/07/17 04:22:33;;;;;;;26.33;8.05;;;16.50;99.90;;;;;;5113733;28;20123;-71
2021/07/17 04:24:59;;;;;;;21.38;5.72;;;16.60;99.90;;;;;;5113727;28;20124;-71
2021/07/17 04:27:24;;;;;;;22.60;6.65;;;16.60;99.90;;;;;;5113718;28;20485;-71
2021/07/17 04:29:50;;;;;;;20.20;5.75;;;16.70;99.90;;;;;;5113408;28;20043;-71
2021/07/17 04:32:16;;;;;;;28.20;8.10;;;16.70;99.90;;;;;;5113766;28;20036;-71
2021/07/17 04:34:41;;;;;;;19.48;6.28;;;16.70;99.90;;;;;;5113611;28;20506;-71
2021/07/17 04:37:07;;;;;;;18.58;6.00;;;16.80;99.90;;;;;;5113630;28;20040;-71
2021/07/17 04:39:33;;;;;;;20.77;5.85;;;16.80;99.90;;;;;;5113368;28;20106;-71
2021/07/17 04:41:58;;;;;;;22.02;5.85;;;16.80;99.90;;;;;;5113673;28;20067;-71
2021/07/17 04:44:25;;;;;;;26.00;6.20;;;16.90;99.90;;;;;;5115429;28;20411;-71
2021/07/17 04:46:51;;;;;;;17.63;5.60;;;16.90;99.90;;;;;;5117650;28;20039;-71
2021/07/17 04:49:16;;;;;;;19.52;6.22;;;17.00;99.90;;;;;;5117343;28;20031;-71
2021/07/17 04:51:42;;;;;;;17.92;6.38;;;17.00;99.90;;;;;;5117417;28;20035;-71
2021/07/17 04:54:08;;;;;;;22.27;5.63;;;17.10;99.90;;;;;;5117962;28;20039;-71
2021/07/17 04:56:33;;;;;;;15.27;5.15;;;17.20;99.90;;;;;;5117426;28;20043;-71
2021/07/17 04:58:59;;;;;;;19.75;5.47;;;17.30;99.90;;;;;;5117449;28;20040;-71
2021/07/17 05:01:25;;;;;;;21.13;5.93;;;17.40;99.90;;;;;;5117258;28;20039;-71
2021/07/17 05:03:50;;;;;;;16.77;5.88;;;17.50;99.90;;;;;;5117662;28;20070;-71
2021/07/17 05:06:16;;;;;;;22.00;6.32;;;17.70;99.90;;;;;;5117407;28;20040;-71
2021/07/17 05:08:42;;;;;;;14.05;5.13;;;17.80;99.90;;;;;;5117117;28;20114;-71
2021/07/17 05:11:07;;;;;;;13.75;5.05;;;18.00;99.90;;;;;;5117195;28;20032;-71
2021/07/17 05:13:34;;;;;;;19.70;4.63;;;18.10;99.90;;;;;;5117216;28;20043;-71
2021/07/17 05:16:00;;;;;;;14.73;4.72;;;18.10;99.90;;;;;;5117439;28;20411;-71
2021/07/17 05:18:25;;;;;;;15.50;5.00;;;18.20;99.90;;;;;;5117013;28;20039;-71
2021/07/17 05:20:52;;;;;;;15.23;4.90;;;18.40;99.90;;;;;;5116919;28;20551;-71
2021/07/17 05:23:18;;;;;;;13.43;4.85;;;18.60;99.90;;;;;;5116984;28;20075;-71
2021/07/17 05:25:44;;;;;;;9.38;4.20;;;18.70;99.90;;;;;;5116915;28;20483;-71
2021/07/17 05:28:11;;;;;;;12.57;4.35;;;18.70;99.90;;;;;;5117400;28;20074;-71
2021/07/17 05:30:37;;;;;;;12.48;4.20;;;19.10;99.90;;;;;;5116412;28;20032;-71
2021/07/17 05:33:02;;;;;;;13.15;4.18;;;19.40;99.90;;;;;;5116915;28;20104;-71
2021/07/17 05:35:28;;;;;;;12.13;3.38;;;19.50;99.90;;;;;;5117072;28;20051;-71
2021/07/17 05:37:55;;;;;;;11.15;4.07;;;19.60;99.90;;;;;;5116978;28;20036;-71
2021/07/17 05:40:21;;;;;;;10.20;3.28;;;20.00;99.90;;;;;;5116279;27;20051;-71
2021/07/17 05:42:47;;;;;;;12.75;4.35;;;20.20;99.90;;;;;;5116947;28;20039;-71
2021/07/17 05:45:13;;;;;;;10.98;3.92;;;20.20;99.90;;;;;;5115832;28;20048;-71
2021/07/17 05:47:39;;;;;;;11.52;4.13;;;20.40;99.90;;;;;;5116808;28;20046;-71
2021/07/17 05:50:06;;;;;;;12.77;3.83;;;20.30;99.90;;;;;;5116334;28;20114;-71
2021/07/17 05:52:32;;;;;;;17.02;4.07;;;20.50;99.90;;;;;;5115218;28;20448;-71
2021/07/17 05:54:58;;;;;;;8.80;3.42;;;20.60;99.90;;;;;;5116487;28;20071;-71
2021/07/17 05:57:23;;;;;;;13.60;5.28;;;20.70;99.90;;;;;;5115966;28;20036;-71
2021/07/17 05:59:49;;;;;;;12.48;3.50;;;20.70;99.90;;;;;;5116206;28;20043;-72
2021/07/17 06:02:15;;;;;;;22.63;5.18;;;20.80;99.90;;;;;;5116231;28;20036;-71
2021/07/17 06:04:40;;;;;;;13.45;4.28;;;21.10;99.90;;;;;;5116172;28;20048;-71
2021/07/17 06:07:06;;;;;;;14.88;3.88;;;21.00;99.90;;;;;;5116487;28;20067;-72
2021/07/17 06:09:31;;;;;;;17.63;4.38;;;21.10;99.90;;;;;;5116216;28;20503;-72
2021/07/17 06:11:57;;;;;;;11.70;3.58;;;21.40;99.90;;;;;;5115810;28;20487;-72
2021/07/17 06:14:23;;;;;;;15.60;4.65;;;21.40;99.90;;;;;;5116350;28;20495;-71
2021/07/17 06:16:49;;;;;;;14.05;4.50;;;21.30;99.90;;;;;;5116117;28;20487;-70
2021/07/17 06:19:15;;;;;;;14.38;4.45;;;21.60;99.90;;;;;;5115634;28;20384;-70
2021/07/17 06:21:41;;;;;;;18.40;4.35;;;21.60;99.90;;;;;;5116310;28;20043;-71
2021/07/17 06:24:06;;;;;;;12.95;3.80;;;21.50;99.90;;;;;;5116229;28;20085;-70
2021/07/17 06:26:33;;;;;;;9.02;3.17;;;21.60;99.90;;;;;;5116277;28;20043;-71
2021/07/17 06:28:59;;;;;;;14.10;3.83;;;22.00;99.90;;;;;;5115739;28;20044;-71
2021/07/17 06:31:24;;;;;;;10.75;3.63;;;21.80;99.90;;;;;;5115924;28;20038;-71
2021/07/17 06:33:50;;;;;;;9.75;3.90;;;22.20;99.90;;;;;;5115839;28;20040;-69
2021/07/17 06:36:16;;;;;;;12.00;4.00;;;22.10;99.90;;;;;;5115723;28;20542;-70
2021/07/17 06:38:43;;;;;;;10.10;3.15;;;21.70;99.90;;;;;;5115730;28;20038;-71
2021/07/17 06:41:09;;;;;;;13.00;3.60;;;22.00;99.90;;;;;;5115947;28;20107;-71
2021/07/17 06:43:36;;;;;;;14.93;3.88;;;22.10;99.90;;;;;;5116024;28;20036;-71
2021/07/17 06:46:03;;;;;;;14.07;3.30;;;22.00;99.90;;;;;;5115416;28;20096;-71
2021/07/17 06:48:32;;;;;;;12.63;3.42;;;21.60;99.90;;;;;;5115035;28;20036;-71
2021/07/17 06:50:58;;;;;;;13.98;3.40;;;21.50;99.90;;;;;;5115225;27;20070;-71
2021/07/17 06:53:24;;;;;;;13.98;3.42;;;22.10;99.90;;;;;;5115192;28;20078;-69
2021/07/17 06:55:49;;;;;;;11.77;3.45;;;22.00;99.90;;;;;;5115627;28;20035;-68
2021/07/17 06:58:15;;;;;;;10.82;3.38;;;22.50;99.90;;;;;;5115175;28;20043;-68
2021/07/17 07:00:41;;;;;;;12.18;3.80;;;22.50;99.90;;;;;;5114860;28;20036;-68
2021/07/17 07:03:06;;;;;;;9.20;3.30;;;22.70;99.90;;;;;;5115297;28;20043;-68
2021/07/17 07:05:32;;;;;;;12.43;2.78;;;23.10;99.90;;;;;;5115150;28;20475;-69
2021/07/17 07:07:58;;;;;;;14.13;3.90;;;23.20;99.90;;;;;;5114076;28;20043;-69
2021/07/17 07:10:24;;;;;;;12.65;3.45;;;22.60;99.90;;;;;;5114449;28;20395;-70
2021/07/17 07:12:50;;;;;;;4.65;2.65;;;22.60;99.90;;;;;;5114494;28;20043;-70
2021/07/17 07:15:16;;;;;;;9.82;2.67;;;22.90;99.90;;;;;;5114944;28;20110;-70
2021/07/17 07:17:42;;;;;;;9.85;3.10;;;22.30;99.90;;;;;;5114874;28;20040;-70
2021/07/17 07:20:09;;;;;;;9.68;2.70;;;22.40;99.90;;;;;;5114281;28;20063;-71
2021/07/17 07:22:35;;;;;;;9.63;2.65;;;22.40;99.90;;;;;;5114622;28;20043;-71
2021/07/17 07:25:03;;;;;;;7.90;2.78;;;22.50;99.90;;;;;;5114598;28;20031;-71
2021/07/17 07:27:28;;;;;;;8.20;2.85;;;22.40;99.90;;;;;;5114327;28;20042;-71
2021/07/17 07:29:54;;;;;;;16.02;3.47;;;22.80;99.90;;;;;;5114110;28;20106;-71
2021/07/17 07:32:19;;;;;;;8.70;3.08;;;22.90;99.90;;;;;;5114430;28;20552;-71
2021/07/17 07:34:45;;;;;;;7.97;2.95;;;22.70;99.90;;;;;;5114701;28;20115;-71
2021/07/17 07:37:11;;;;;;;8.88;2.65;;;22.60;99.90;;;;;;5114499;28;20039;-71
2021/07/17 07:39:36;;;;;;;8.63;3.08;;;23.00;99.90;;;;;;5114223;28;20037;-71
2021/07/17 07:42:03;;;;;;;11.18;2.55;;;23.30;99.90;;;;;;5114693;28;20036;-71
2021/07/17 07:44:28;;;;;;;9.20;2.88;;;23.20;99.90;;;;;;5114387;28;20095;-71
2021/07/17 07:46:55;;;;;;;8.25;2.53;;;23.20;99.90;;;;;;5114128;28;20039;-71
2021/07/17 07:49:20;;;;;;;11.00;2.70;;;23.20;99.90;;;;;;5113838;28;20042;-71
2021/07/17 07:51:46;;;;;;;11.32;2.97;;;23.40;99.90;;;;;;5114725;28;20035;-71
2021/07/17 07:54:12;;;;;;;10.50;2.45;;;23.70;99.90;;;;;;5114166;28;20040;-71
2021/07/17 07:56:38;;;;;;;10.13;2.22;;;24.00;99.90;;;;;;5113920;28;20092;-71
2021/07/17 07:59:04;;;;;;;7.22;2.40;;;23.80;99.90;;;;;;5113785;28;20043;-71
2021/07/17 08:01:29;;;;;;;8.88;2.85;;;23.80;99.90;;;;;;5113816;28;20062;-71
2021/07/17 08:03:55;;;;;;;6.22;2.60;;;23.80;99.90;;;;;;5113919;28;20395;-71
2021/07/17 08:06:21;;;;;;;11.75;2.97;;;24.00;99.90;;;;;;5113867;28;20069;-71
2021/07/17 08:08:46;;;;;;;11.27;2.45;;;23.50;99.90;;;;;;5113918;28;20059;-71
2021/07/17 08:11:12;;;;;;;6.10;2.33;;;23.50;99.90;;;;;;5113762;28;20046;-71
2021/07/17 08:13:38;;;;;;;8.00;2.20;;;23.80;99.90;;;;;;5113807;28;20039;-71
2021/07/17 08:16:03;;;;;;;9.40;2.78;;;24.00;99.90;;;;;;5113890;28;20070;-71
2021/07/17 08:18:30;;;;;;;9.38;2.38;;;23.90;99.90;;;;;;5113469;28;20039;-71
2021/07/17 08:20:56;;;;;;;14.70;3.22;;;24.50;99.90;;;;;;5114039;28;20105;-71
2021/07/17 08:23:23;;;;;;;14.20;3.17;;;24.60;99.90;;;;;;5114447;28;20066;-71
2021/07/17 08:25:49;;;;;;;10.02;2.63;;;24.30;99.90;;;;;;5113900;28;20031;-71
2021/07/17 08:28:15;;;;;;;9.55;2.55;;;23.80;99.70;;;;;;5113608;28;20506;-71
2021/07/17 08:30:41;;;;;;;11.30;2.63;;;23.90;99.90;;;;;;5113221;28;20036;-72
2021/07/17 08:33:07;;;;;;;6.72;2.50;;;24.30;99.90;;;;;;5113691;28;20031;-71
2021/07/17 08:35:33;;;;;;;5.95;2.25;;;23.80;99.90;;;;;;5112651;28;20458;-71
2021/07/17 08:37:59;;;;;;;8.73;2.10;;;24.00;99.90;;;;;;5113398;28;20042;-71
2021/07/17 08:40:25;;;;;;;6.90;2.00;;;24.30;99.90;;;;;;5113044;28;20127;-71
2021/07/17 08:42:51;;;;;;;9.48;2.10;;;24.50;99.90;;;;;;5113507;28;20115;-71
2021/07/17 08:45:18;;;;;;;6.03;2.65;;;24.30;99.20;;;;;;5113581;28;20036;-71
2021/07/17 08:47:45;;;;;;;6.25;1.90;;;24.00;99.90;;;;;;5114264;28;20043;-71
2021/07/17 08:50:16;;;;;;;8.05;2.47;;;24.30;99.90;;;;;;5112955;28;20483;-71
2021/07/17 08:52:42;;;;;;;7.82;2.63;;;24.50;99.90;;;;;;5113370;28;20035;-71
2021/07/17 08:55:10;;;;;;;8.70;2.17;;;24.70;99.10;;;;;;5113438;28;20361;-72
2021/07/17 08:57:38;;;;;;;9.75;1.80;;;24.60;99.00;;;;;;5113601;28;20032;-72
2021/07/17 09:00:15;;;;;;;6.75;1.85;;;24.40;99.00;;;;;;5113091;28;20043;-72
2021/07/17 09:02:47;;;;;;;5.57;2.20;;;24.80;99.10;;;;;;5113948;28;20046;-72
2021/07/17 09:05:16;;;;;;;6.38;1.90;;;25.00;98.20;;;;;;5113420;28;20071;-72
2021/07/17 09:07:42;;;;;;;5.78;1.92;;;24.10;98.30;;;;;;5113455;28;20045;-72
2021/07/17 09:10:30;;;;;;;5.38;1.88;;;23.90;98.90;;;;;;5113368;28;20435;-72
2021/07/17 09:13:28;;;;;;;7.05;1.48;;;24.40;99.50;;;;;;5113339;28;20040;-72
2021/07/17 09:15:57;;;;;;;5.63;1.77;;;24.00;98.80;;;;;;5113298;28;20042;-72
2021/07/17 09:18:35;;;;;;;5.00;1.55;;;24.00;99.30;;;;;;5113387;28;20118;-72
2021/07/17 09:21:06;;;;;;;5.22;1.98;;;24.50;99.60;;;;;;5113349;28;20035;-72
2021/07/17 09:23:35;;;;;;;4.93;1.70;;;24.70;97.40;;;;;;5113237;28;20040;-72
2021/07/17 09:26:15;;;;;;;7.32;2.03;;;24.60;97.10;;;;;;5113481;28;20070;-71
2021/07/17 09:28:42;;;;;;;4.10;1.38;;;24.50;97.60;;;;;;5112781;28;20035;-71
2021/07/17 09:31:09;;;;;;;7.68;2.53;;;24.70;96.50;;;;;;5114877;28;20517;-71
2021/07/17 09:33:35;;;;;;;8.85;1.60;;;24.90;96.40;;;;;;5117279;28;20371;-71
2021/07/17 09:36:01;;;;;;;4.80;1.70;;;24.90;95.30;;;;;;5116825;28;20111;-72
2021/07/17 09:38:33;;;;;;;3.90;1.70;;;24.50;96.00;;;;;;5116711;28;20069;-72
2021/07/17 09:41:02;;;;;;;11.75;2.50;;;24.20;96.20;;;;;;5116608;28;20055;-73
2021/07/17 09:43:33;;;;;;;4.80;1.75;;;24.60;96.20;;;;;;5116716;28;20050;-73
2021/07/17 09:46:00;;;;;;;8.32;1.92;;;24.40;96.70;;;;;;5116577;28;20504;-72
2021/07/17 09:48:32;;;;;;;6.47;1.48;;;24.30;97.00;;;;;;5116921;28;20043;-73
2021/07/17 09:51:03;;;;;;;3.92;1.65;;;23.90;97.00;;;;;;5116349;28;20475;-72
2021/07/17 09:53:49;;;;;;;5.18;1.38;;;24.20;97.50;;;;;;5116564;28;20032;-72
2021/07/17 09:56:23;;;;;;;6.75;1.88;;;24.00;97.60;;;;;;5116613;28;20043;-71
2021/07/17 09:58:50;;;;;;;6.95;1.77;;;23.90;97.10;;;;;;5116335;28;20440;-72
2021/07/17 10:01:18;;;;;;;3.22;1.35;;;24.30;98.00;;;;;;5116197;28;20032;-71
2021/07/17 10:03:44;;;;;;;5.43;1.40;;;24.20;97.40;;;;;;5116307;27;20372;-72
2021/07/17 10:06:35;;;;;;;5.53;2.05;;;23.80;97.70;;;;;;5116137;28;20062;-72
2021/07/17 10:09:26;;;;;;;7.20;1.58;;;24.20;98.30;;;;;;5115060;28;20077;-72
2021/07/17 10:11:59;;;;;;;6.93;1.90;;;24.20;98.50;;;;;;5115789;28;20047;-72
2021/07/17 10:14:31;;;;;;;4.20;1.58;;;24.40;97.60;;;;;;5116186;27;20049;-72
2021/07/17 10:16:58;;;;;;;5.25;1.88;;;24.60;97.40;;;;;;5114928;28;20039;-72
2021/07/17 10:19:28;;;;;;;4.97;1.63;;;24.40;98.40;;;;;;5115640;28;20039;-72
2021/07/17 10:21:55;;;;;;;6.22;2.00;;;24.60;99.10;;;;;;5116177;28;20051;-72
2021/07/17 10:24:21;;;;;;;5.97;1.85;;;24.20;97.50;;;;;;5116116;28;20114;-72
2021/07/17 10:26:49;;;;;;;4.03;1.63;;;24.20;98.20;;;;;;5115900;28;20035;-72
2021/07/17 10:29:16;;;;;;;6.03;1.50;;;24.50;98.60;;;;;;5115959;28;20407;-72
2021/07/17 10:31:42;;;;;;;5.03;1.85;;;24.50;98.30;;;;;;5116109;28;20468;-72
2021/07/17 10:34:08;;;;;;;4.25;1.50;;;24.60;97.30;;;;;;5115555;28;20044;-72
2021/07/17 10:36:40;;;;;;;4.47;1.13;;;24.60;96.60;;;;;;5115535;28;20118;-72
2021/07/17 10:39:08;;;;;;;6.40;1.40;;;24.00;95.40;;;;;;5102816;28;20043;-72
2021/07/17 10:41:36;;;;;;;6.15;1.42;;;24.00;96.20;;;;;;5094807;28;20070;-72
2021/07/17 10:44:02;;;;;;;4.50;1.42;;;24.00;97.40;;;;;;5094924;28;20075;-72
2021/07/17 10:46:36;;;;;;;4.03;1.02;;;24.00;96.80;;;;;;5095357;28;20036;-72
2021/07/17 10:49:07;;;;;;;4.47;1.52;;;23.90;96.30;;;;;;5095065;28;20032;-72
2021/07/17 10:51:36;;;;;;;3.85;1.20;;;24.00;97.30;;;;;;5093821;28;20040;-72
2021/07/17 10:54:04;;;;;;;3.15;1.52;;;24.20;96.00;;;;;;5095105;28;20111;-72
2021/07/17 10:56:31;;;;;;;4.55;1.30;;;24.10;96.10;;;;;;5094767;28;20484;-72
2021/07/17 10:59:00;;;;;;;2.88;0.90;;;24.10;97.30;;;;;;5094683;28;20116;-72
2021/07/17 11:01:27;;;;;;;4.55;1.25;;;23.90;96.20;;;;;;5095017;28;20044;-72
2021/07/17 11:03:53;;;;;;;6.10;0.90;;;23.60;95.50;;;;;;5095077;28;20040;-72
2021/07/17 11:06:31;;;;;;;3.28;1.20;;;24.10;94.70;;;;;;5094543;28;20472;-72
2021/07/17 11:09:17;;;;;;;4.88;1.20;;;23.80;94.70;;;;;;5094386;28;20040;-72
2021/07/17 11:11:43;;;;;;;3.58;1.38;;;23.50;94.40;;;;;;5094285;28;20044;-73
2021/07/17 11:14:11;;;;;;;5.55;1.10;;;23.40;95.40;;;;;;5094090;28;20119;-73
2021/07/17 11:16:42;;;;;;;2.13;0.98;;;23.60;95.60;;;;;;5095001;28;20063;-72
2021/07/17 11:19:23;;;;;;;3.03;1.38;;;23.70;96.10;;;;;;5094271;28;20043;-72
2021/07/17 11:21:50;;;;;;;5.35;1.10;;;23.90;95.50;;;;;;5094781;28;20071;-72
2021/07/17 11:24:16;;;;;;;3.95;1.13;;;24.00;96.40;;;;;;5094360;28;20400;-72
2021/07/17 11:26:42;;;;;;;7.35;2.05;;;24.10;96.00;;;;;;5094969;28;20036;-72
2021/07/17 11:29:13;;;;;;;3.95;1.05;;;24.00;97.10;;;;;;5093975;28;20161;-72
2021/07/17 11:31:41;;;;;;;2.08;0.95;;;24.10;94.30;;;;;;5094196;28;20373;-72
2021/07/17 11:34:09;;;;;;;3.53;0.88;;;24.00;95.90;;;;;;5094132;28;20403;-72
2021/07/17 11:36:35;;;;;;;2.60;1.05;;;23.80;95.10;;;;;;5094106;28;20032;-72
2021/07/17 11:39:03;;;;;;;2.33;1.00;;;24.00;97.50;;;;;;5094185;28;20173;-73
2021/07/17 11:41:29;;;;;;;6.00;1.10;;;24.10;94.90;;;;;;5093940;28;20109;-72
2021/07/17 11:43:54;;;;;;;6.40;1.70;;;23.80;95.80;;;;;;5094072;28;20468;-72
2021/07/17 11:46:20;;;;;;;4.75;1.75;;;24.00;99.60;;;;;;5094078;28;20039;-72
2021/07/17 11:49:10;;;;;;;10.00;1.45;;;23.90;98.70;;;;;;5093641;28;20115;-72
2021/07/17 11:51:51;;;;;;;4.35;1.17;;;24.00;98.90;;;;;;5093963;28;20040;-72
2021/07/17 11:54:24;;;;;;;6.45;1.60;;;23.90;99.00;;;;;;5093184;28;20416;-72
2021/07/17 11:57:08;;;;;;;;;;;24.10;99.90;;;;;;5094051;28;20043;-72
2021/07/17 11:59:36;;;;;;;5.30;2.00;;;23.50;97.80;;;;;;5093369;28;19920;-72
2021/07/17 12:02:14;;;;;;;5.00;1.65;;;23.50;98.40;;;;;;5094259;28;20044;-72
2021/07/17 12:04:48;;;;;;;5.82;1.92;;;23.30;99.00;;;;;;5093977;28;20494;-72
2021/07/17 12:07:18;;;;;;;6.55;1.92;;;23.50;99.80;;;;;;5093875;28;20119;-72
2021/07/17 12:09:48;;;;;;;2.60;1.27;;;23.60;99.10;;;;;;5093534;28;20047;-72
2021/07/17 12:12:15;;;;;;;5.53;1.73;;;23.70;99.90;;;;;;5093406;28;20035;-72
2021/07/17 12:14:41;;;;;;;4.90;1.40;;;23.90;99.90;;;;;;5093990;28;20040;-72
2021/07/17 12:17:07;;;;;;;4.45;1.08;;;23.80;99.40;;;;;;5093723;28;20049;-72
2021/07/17 12:19:33;;;;;;;4.55;1.90;;;23.40;99.20;;;;;;5097737;28;20038;-72
2021/07/17 12:21:59;;;;;;;5.30;1.63;;;23.60;99.90;;;;;;5113637;28;20126;-72
2021/07/17 12:24:25;;;;;;;3.72;1.17;;;23.50;99.90;;;;;;5113812;28;20101;-72
2021/07/17 12:26:50;;;;;;;3.65;1.75;;;23.70;99.90;;;;;;5113745;28;20047;-72
2021/07/17 12:29:16;;;;;;;5.85;1.60;;;23.70;99.90;;;;;;5113691;28;20084;-72
2021/07/17 12:32:02;;;;;;;6.45;1.75;;;23.80;99.90;;;;;;5113747;28;20040;-72
2021/07/17 12:34:28;;;;;;;5.72;1.30;;;23.50;99.20;;;;;;5113652;28;20487;-72
2021/07/17 12:36:53;;;;;;;5.15;1.20;;;23.30;99.80;;;;;;5113639;28;20114;-72
2021/07/17 12:39:20;;;;;;;5.65;1.52;;;23.40;99.30;;;;;;5113468;28;20115;-72
2021/07/17 12:41:47;;;;;;;3.65;1.13;;;23.50;99.90;;;;;;5113458;28;20521;-72